Time;durP1;ratioP1;P1;durP2;ratioP2;P2;SDS_P1;SDS_P2;PMS_P1;PMS_P2;Temp;Humidity;BMP_temperature;BMP_pressure;BME280_temperature;BME280_humidity;BME280_pressure;Samples;Min_cycle;Max_cycle;Signal;HPM_P1;HPM_P2
2022/10/08 00:00:44;;;;;;;1.65;1.58;;;;;;;11.00;81.45;63132.59;4952758;28;20373;-75
2022/10/08 00:03:12;;;;;;;1.67;1.58;;;;;;;10.96;81.37;63130.50;4965254;28;20246;-76
2022/10/08 00:05:39;;;;;;;1.95;1.85;;;;;;;10.96;81.29;63127.97;4963731;29;20209;-77
2022/10/08 00:08:06;;;;;;;1.95;1.75;;;;;;;10.99;80.69;63138.69;4949166;29;20477;-76
2022/10/08 00:10:35;;;;;;;1.85;1.75;;;;;;;10.97;80.92;63131.53;4961854;29;20444;-77
2022/10/08 00:13:03;;;;;;;1.75;1.65;;;;;;;11.00;80.97;63132.09;4966225;28;20268;-76
2022/10/08 00:15:30;;;;;;;2.05;1.95;;;;;;;11.03;80.84;63140.28;4956396;29;20284;-76
2022/10/08 00:17:57;;;;;;;1.70;1.60;;;;;;;11.03;80.02;63137.72;4951623;29;20221;-76
2022/10/08 00:20:24;;;;;;;3.28;1.77;;;;;;;10.99;80.27;63129.00;4964620;29;20240;-76
2022/10/08 00:22:50;;;;;;;3.22;1.50;;;;;;;11.01;80.44;63136.19;4965798;28;20444;-77
2022/10/08 00:25:17;;;;;;;2.20;2.10;;;;;;;10.96;83.06;63128.47;4966323;29;20267;-76
2022/10/08 00:27:46;;;;;;;2.03;1.88;;;;;;;10.88;82.85;63119.66;4961473;29;20229;-77
2022/10/08 00:30:13;;;;;;;1.83;1.70;;;;;;;10.85;83.34;63119.09;4946734;29;20202;-77
2022/10/08 00:32:40;;;;;;;1.45;1.45;;;;;;;10.95;82.49;63132.53;4954413;28;20221;-76
2022/10/08 00:35:07;;;;;;;3.17;1.73;;;;;;;10.90;82.79;63124.28;4954607;29;20208;-75
2022/10/08 00:37:34;;;;;;;2.17;1.95;;;;;;;10.83;83.09;63119.59;4965484;28;20225;-77
2022/10/08 00:40:01;;;;;;;1.83;1.73;;;;;;;10.70;85.53;63103.59;4965551;29;20236;-77
2022/10/08 00:42:28;;;;;;;2.03;1.92;;;;;;;10.53;86.63;63083.44;4958868;29;20225;-77
2022/10/08 00:44:59;;;;;;;2.17;1.85;;;;;;;10.44;87.48;63077.69;4957152;29;20489;-76
2022/10/08 00:47:42;;;;;;;2.00;1.75;;;;;;;10.38;88.96;63068.94;4962963;28;20216;-76
2022/10/08 00:50:14;;;;;;;2.97;2.08;;;;;;;10.35;88.82;63068.38;4968238;29;20205;-76
2022/10/08 00:52:44;;;;;;;2.10;2.00;;;;;;;10.32;89.01;63065.28;4965835;28;20228;-77
2022/10/08 00:55:14;;;;;;;1.90;1.80;;;;;;;10.41;88.56;63074.06;4964132;29;20222;-77
2022/10/08 00:57:42;;;;;;;4.63;1.88;;;;;;;10.37;89.45;63070.44;4966498;28;20224;-76
2022/10/08 01:00:13;;;;;;;1.58;1.48;;;;;;;10.29;90.25;63059.09;4954800;29;20224;-77
2022/10/08 01:02:40;;;;;;;2.50;2.30;;;;;;;10.25;91.17;63055.50;4966595;28;20225;-76
2022/10/08 01:05:08;;;;;;;2.03;1.92;;;;;;;10.21;92.11;63050.84;4967504;29;20204;-77
2022/10/08 01:07:43;;;;;;;2.22;2.13;;;;;;;10.20;92.94;63052.88;4964861;28;20406;-77
2022/10/08 01:10:18;;;;;;;1.92;1.73;;;;;;;10.12;93.31;63044.59;4963833;29;20204;-77
2022/10/08 01:12:58;;;;;;;1.77;1.60;;;;;;;10.12;93.73;63039.50;4961948;28;20264;-75
2022/10/08 01:15:34;;;;;;;3.17;2.10;;;;;;;10.21;93.24;63053.38;4971505;29;20200;-77
2022/10/08 01:18:10;;;;;;;2.03;1.92;;;;;;;10.27;93.13;63065.19;4968986;28;20267;-76
2022/10/08 01:20:49;;;;;;;2.20;2.10;;;;;;;10.25;93.79;63055.50;4971400;29;20256;-76
2022/10/08 01:23:35;;;;;;;5.95;2.25;;;;;;;10.24;94.52;63054.47;4967559;28;20259;-76
2022/10/08 01:26:14;;;;;;;2.35;2.20;;;;;;;10.36;94.88;63074.00;4969006;29;20201;-76
2022/10/08 01:28:48;;;;;;;7.88;2.40;;;;;;;10.42;95.37;63067.47;4954280;29;20525;-76
2022/10/08 01:31:20;;;;;;;3.67;2.30;;;;;;;10.47;96.01;63082.84;4960945;29;20247;-77
2022/10/08 01:33:52;;;;;;;3.13;2.65;;;;;;;10.54;96.85;63087.03;4969535;28;20303;-76
2022/10/08 01:36:20;;;;;;;2.35;2.15;;;;;;;10.71;97.13;63107.69;4968485;29;20269;-77
2022/10/08 01:38:52;;;;;;;4.25;2.95;;;;;;;10.73;97.65;63104.13;4974478;28;20251;-77
2022/10/08 01:41:21;;;;;;;3.00;2.80;;;;;;;10.85;97.79;63114.00;4964542;29;20200;-77
2022/10/08 01:44:00;;;;;;;3.47;3.17;;;;;;;10.82;98.94;63116.50;4969694;28;20221;-76
2022/10/08 01:46:30;;;;;;;3.42;2.90;;;;;;;10.89;99.32;63123.25;4956934;29;20205;-77
2022/10/08 01:49:03;;;;;;;3.50;3.30;;;;;;;10.95;99.63;63126.91;4951944;29;20387;-76
2022/10/08 01:51:34;;;;;;;3.53;3.22;;;;;;;10.90;99.84;63121.72;4968173;29;20271;-76
2022/10/08 01:54:06;;;;;;;4.50;3.13;;;;;;;10.90;100.00;63127.34;4965593;28;20220;-76
2022/10/08 01:56:34;;;;;;;3.60;3.30;;;;;;;10.92;100.00;63126.88;4951785;29;20530;-77
2022/10/08 01:59:08;;;;;;;5.28;3.20;;;;;;;10.94;100.00;63123.34;4967513;28;20239;-76
2022/10/08 02:01:40;;;;;;;3.95;3.65;;;;;;;10.88;100.00;63122.22;4968216;29;20305;-78
2022/10/08 02:06:57;;;;;;;3.72;3.42;;;;;;;10.75;100.00;63106.72;4963561;29;20199;-77
2022/10/08 02:09:25;;;;;;;3.50;3.30;;;;;;;10.69;100.00;63103.06;4967937;29;20438;-78
2022/10/08 02:11:52;;;;;;;3.78;3.58;;;;;;;10.63;100.00;63096.84;4968307;29;20242;-78
2022/10/08 02:14:25;;;;;;;4.45;3.85;;;;;;;10.62;100.00;63097.84;4956874;29;20197;-79
2022/10/08 02:16:59;;;;;;;5.38;4.07;;;;;;;10.67;100.00;63097.91;4969592;29;20500;-77
2022/10/08 02:19:36;;;;;;;4.10;3.80;;;;;;;10.67;100.00;63097.91;4966387;29;20255;-76
2022/10/08 02:22:06;;;;;;;4.43;3.58;;;;;;;10.62;100.00;63098.34;4970968;28;20228;-78
2022/10/08 02:24:38;;;;;;;5.75;3.60;;;;;;;10.61;100.00;63091.72;4967371;28;20201;-77
2022/10/08 02:27:08;;;;;;;5.25;4.03;;;;;;;10.58;100.00;63091.16;4965972;28;20244;-77
2022/10/08 02:29:39;;;;;;;6.32;4.13;;;;;;;10.55;100.00;63088.03;4969015;29;20209;-76
2022/10/08 02:32:12;;;;;;;4.55;4.15;;;;;;;10.50;100.00;63083.38;4971231;28;20236;-77
2022/10/08 02:34:46;;;;;;;4.82;4.40;;;;;;;10.49;100.00;63077.78;4966263;29;20231;-76
2022/10/08 02:37:17;;;;;;;4.68;4.35;;;;;;;10.63;100.00;63096.34;4968852;28;20245;-76
2022/10/08 02:39:49;;;;;;;5.97;3.90;;;;;;;10.59;100.00;63090.16;4960676;29;20292;-75
2022/10/08 02:42:22;;;;;;;6.10;4.18;;;;;;;10.58;100.00;63093.72;4966020;29;20224;-76
2022/10/08 02:44:53;;;;;;;4.15;3.85;;;;;;;10.49;100.00;63085.41;4963173;29;20208;-76
2022/10/08 02:47:24;;;;;;;4.25;3.90;;;;;;;10.40;100.00;63070.50;4967478;28;20584;-76
2022/10/08 02:49:56;;;;;;;5.72;4.35;;;;;;;10.34;100.00;63069.91;4953688;29;20213;-77
2022/10/08 02:52:27;;;;;;;4.25;3.95;;;;;;;10.25;100.00;63058.03;4962392;29;21319;-76
2022/10/08 02:54:55;;;;;;;4.28;3.97;;;;;;;10.20;100.00;63052.34;4961956;29;20366;-76
2022/10/08 02:57:29;;;;;;;4.47;4.18;;;;;;;10.17;100.00;63049.25;4948616;29;20221;-77
2022/10/08 02:59:58;;;;;;;5.40;4.32;;;;;;;10.26;100.00;63056.00;4954838;29;20270;-76
2022/10/08 03:02:32;;;;;;;5.25;4.10;;;;;;;10.19;100.00;63051.84;4964446;29;20220;-75
2022/10/08 03:05:03;;;;;;;4.88;4.47;;;;;;;10.11;100.00;63041.00;4969476;29;20200;-76
2022/10/08 03:07:32;;;;;;;5.43;4.72;;;;;;;10.07;100.00;63036.84;4959947;29;20248;-76
2022/10/08 03:10:04;;;;;;;5.30;4.88;;;;;;;10.00;100.00;63027.06;4966189;29;20228;-76
2022/10/08 03:12:31;;;;;;;4.85;4.43;;;;;;;10.01;100.00;63030.13;4967082;28;20237;-76
2022/10/08 03:15:00;;;;;;;5.72;4.43;;;;;;;9.92;100.00;63021.31;4969318;29;20253;-76
2022/10/08 03:17:31;;;;;;;5.20;4.75;;;;;;;9.91;100.00;63022.31;4960637;29;20452;-76
2022/10/08 03:20:01;;;;;;;6.50;4.85;;;;;;;9.86;100.00;63017.66;4964987;29;20260;-78
2022/10/08 03:22:30;;;;;;;5.60;5.05;;;;;;;9.79;100.00;63012.44;4967396;28;20276;-76
2022/10/08 03:24:57;;;;;;;8.95;5.82;;;;;;;9.72;100.00;63005.22;4963815;29;20396;-76
2022/10/08 03:27:24;;;;;;;8.75;5.50;;;;;;;9.70;100.00;62995.53;4967629;29;20218;-76
2022/10/08 03:29:55;;;;;;;7.90;5.85;;;;;;;9.66;100.00;62991.38;4966438;29;20201;-76
2022/10/08 03:32:24;;;;;;;6.70;5.80;;;;;;;9.63;100.00;62993.38;4966806;29;20332;-76
2022/10/08 03:34:51;;;;;;;6.60;5.45;;;;;;;9.59;100.00;62989.75;4965571;29;20205;-76
2022/10/08 03:37:18;;;;;;;6.43;5.70;;;;;;;9.48;100.00;62977.84;4949298;29;20225;-75
2022/10/08 03:39:45;;;;;;;6.75;5.95;;;;;;;9.40;100.00;62969.59;4966165;29;20229;-77
2022/10/08 03:42:12;;;;;;;7.13;5.03;;;;;;;9.42;100.00;62969.63;4966035;29;20232;-78
2022/10/08 03:44:38;;;;;;;6.45;4.82;;;;;;;9.37;100.00;62963.94;4966510;29;20213;-77
2022/10/08 03:47:05;;;;;;;5.28;4.78;;;;;;;9.33;100.00;62960.31;4965759;28;20220;-76
2022/10/08 03:49:33;;;;;;;5.38;4.88;;;;;;;9.32;100.00;62957.25;4968035;29;20239;-77
2022/10/08 03:52:00;;;;;;;7.47;5.50;;;;;;;9.35;100.00;62962.91;4963624;28;20252;-78
2022/10/08 03:54:27;;;;;;;6.55;4.97;;;;;;;9.38;100.00;62965.50;4966389;29;20244;-76
2022/10/08 03:56:54;;;;;;;9.10;4.93;;;;;;;9.43;100.00;62968.13;4964496;28;20252;-76
2022/10/08 03:59:21;;;;;;;5.45;5.05;;;;;;;9.33;100.00;62957.78;4965393;29;20227;-75
2022/10/08 04:01:48;;;;;;;5.70;5.10;;;;;;;9.37;100.00;62966.47;4961349;28;20541;-76
2022/10/08 04:04:14;;;;;;;5.75;5.20;;;;;;;9.33;100.00;62960.84;4966804;29;20209;-77
2022/10/08 04:06:43;;;;;;;7.53;5.53;;;;;;;9.29;100.00;62951.09;4962560;28;20319;-76
2022/10/08 04:09:10;;;;;;;5.88;5.47;;;;;;;9.25;100.00;62955.09;4966809;29;20522;-77
2022/10/08 04:11:37;;;;;;;5.15;4.65;;;;;;;9.32;100.00;62959.28;4963033;29;20196;-77
2022/10/08 04:14:04;;;;;;;6.38;5.88;;;;;;;9.36;100.00;62963.41;4960962;29;20272;-76
2022/10/08 04:16:30;;;;;;;11.25;6.30;;;;;;;9.39;100.00;62963.97;4966575;29;20201;-76
2022/10/08 04:18:57;;;;;;;7.38;6.65;;;;;;;9.38;100.00;62968.03;4961512;28;20249;-77
2022/10/08 04:21:25;;;;;;;7.82;7.05;;;;;;;9.35;100.00;62959.84;4951595;29;20229;-78
2022/10/08 04:23:53;;;;;;;8.02;7.05;;;;;;;9.32;100.00;62962.34;4965039;28;20224;-77
2022/10/08 04:26:19;;;;;;;12.13;7.78;;;;;;;9.24;100.00;62951.53;4965241;29;20196;-77
2022/10/08 04:28:46;;;;;;;7.50;6.90;;;;;;;9.25;100.00;62954.56;4954998;28;20467;-77
2022/10/08 04:31:16;;;;;;;10.43;7.20;;;;;;;9.33;100.00;62962.88;4965127;29;20252;-77
2022/10/08 04:33:44;;;;;;;9.15;7.63;;;;;;;9.25;100.00;62954.56;4963419;28;20221;-77
2022/10/08 04:36:13;;;;;;;9.80;7.18;;;;;;;9.24;100.00;62949.00;4970087;29;20204;-77
2022/10/08 04:38:42;;;;;;;7.70;6.90;;;;;;;9.28;100.00;62958.19;4960779;29;20231;-80
2022/10/08 04:41:12;;;;;;;9.18;6.82;;;;;;;9.26;100.00;62953.59;4963368;29;20241;-77
2022/10/08 04:43:40;;;;;;;6.72;6.07;;;;;;;9.25;100.00;62950.03;4965651;29;20240;-76
2022/10/08 04:46:09;;;;;;;7.35;5.43;;;;;;;9.25;100.00;62954.56;4965102;29;20486;-77
2022/10/08 04:48:37;;;;;;;6.57;5.70;;;;;;;9.28;100.00;62958.19;4970006;28;20227;-77
2022/10/08 04:51:06;;;;;;;6.97;6.30;;;;;;;9.31;100.00;62960.78;4969717;29;20201;-77
2022/10/08 04:53:33;;;;;;;6.35;5.75;;;;;;;9.31;100.00;62955.72;4969468;28;20228;-76
2022/10/08 04:56:08;;;;;;;10.77;6.43;;;;;;;9.35;100.00;62959.84;4968413;29;20390;-77
2022/10/08 04:58:36;;;;;;;8.65;7.38;;;;;;;9.42;100.00;62964.56;4950802;29;20449;-78
2022/10/08 05:01:04;;;;;;;8.13;7.32;;;;;;;9.53;100.00;62983.53;4963121;29;20252;-77
2022/10/08 05:03:31;;;;;;;7.60;6.88;;;;;;;9.61;100.00;62989.25;4949314;29;20221;-76
2022/10/08 05:05:57;;;;;;;7.88;7.07;;;;;;;9.59;100.00;62987.22;4951157;29;20213;-76
2022/10/08 05:08:24;;;;;;;7.35;6.43;;;;;;;9.67;100.00;62995.47;4959527;29;20231;-76
2022/10/08 05:10:51;;;;;;;7.47;6.43;;;;;;;9.62;100.00;62989.78;4966644;29;20204;-75
2022/10/08 05:13:18;;;;;;;8.05;6.60;;;;;;;9.56;100.00;62989.19;4962161;28;20276;-77
2022/10/08 05:15:47;;;;;;;13.15;8.48;;;;;;;9.55;100.00;62985.09;4949820;29;20396;-76
2022/10/08 05:18:14;;;;;;;12.55;7.18;;;;;;;9.52;100.00;62979.44;4962909;28;20220;-76
2022/10/08 05:23:31;;;;;;;9.38;7.78;;;;;;;9.62;100.00;62997.41;4967252;28;20307;-76
2022/10/08 05:25:58;;;;;;;10.43;7.90;;;;;;;9.65;100.00;62997.97;4968149;29;20385;-77
2022/10/08 05:28:25;;;;;;;9.13;8.20;;;;;;;9.63;100.00;62996.41;4967679;28;20232;-77
2022/10/08 05:30:53;;;;;;;13.55;7.15;;;;;;;9.71;100.00;63002.16;4964694;29;20206;-78
2022/10/08 05:33:20;;;;;;;11.20;8.23;;;;;;;9.78;100.00;63006.34;4950166;29;20414;-75
2022/10/08 05:35:47;;;;;;;8.98;7.53;;;;;;;9.79;100.00;63012.44;4953310;29;20208;-77
2022/10/08 05:38:13;;;;;;;8.38;7.53;;;;;;;9.92;100.00;63018.78;4966521;29;20332;-75
2022/10/08 05:40:40;;;;;;;13.38;8.30;;;;;;;10.02;100.00;63028.63;4967048;29;20428;-77
2022/10/08 05:43:07;;;;;;;10.02;8.48;;;;;;;10.07;100.00;63038.88;4963966;28;20249;-77
2022/10/08 05:45:34;;;;;;;10.90;6.72;;;;;;;10.13;100.00;63048.16;4964067;29;20263;-77
2022/10/08 05:48:02;;;;;;;15.07;7.50;;;;;;;10.26;100.00;63058.56;4963173;28;20217;-76
2022/10/08 05:50:29;;;;;;;9.70;8.70;;;;;;;10.38;100.00;63074.03;4965837;29;20309;-76
2022/10/08 05:52:55;;;;;;;9.98;8.25;;;;;;;10.44;100.00;63075.16;4968071;28;20244;-77
2022/10/08 05:55:23;;;;;;;12.40;7.95;;;;;;;10.47;100.00;63080.28;4965489;29;20201;-78
2022/10/08 05:57:50;;;;;;;11.95;8.32;;;;;;;10.61;100.00;63092.25;4966445;28;20283;-77
2022/10/08 06:00:17;;;;;;;12.73;8.75;;;;;;;10.73;100.00;63107.22;4970308;28;20203;-76
2022/10/08 06:02:44;;;;;;;10.10;7.82;;;;;;;10.82;100.00;63116.00;4965916;28;20239;-78
2022/10/08 06:05:12;;;;;;;19.42;8.82;;;;;;;10.94;100.00;63128.44;4967498;29;20201;-78
2022/10/08 06:07:39;;;;;;;9.18;7.32;;;;;;;11.06;100.00;63138.81;4966342;29;20228;-77
2022/10/08 06:10:07;;;;;;;11.35;7.82;;;;;;;11.18;100.00;63150.72;4965620;29;20392;-76
2022/10/08 06:12:33;;;;;;;9.73;8.10;;;;;;;11.19;100.00;63154.31;4966039;28;20243;-77
2022/10/08 06:15:00;;;;;;;11.82;7.28;;;;;;;11.26;100.00;63159.00;4968283;29;20236;-79
2022/10/08 06:17:27;;;;;;;7.85;7.10;;;;;;;11.37;100.00;63176.00;4955808;29;20479;-77
2022/10/08 06:19:56;;;;;;;10.52;7.05;;;;;;;11.47;100.00;63180.75;4958907;29;20212;-78
2022/10/08 06:22:24;;;;;;;8.55;6.50;;;;;;;11.52;100.00;63186.47;4966021;29;20237;-77
2022/10/08 06:24:51;;;;;;;7.88;7.07;;;;;;;11.60;100.00;63194.75;4969639;29;20203;-77
2022/10/08 06:27:18;;;;;;;6.95;6.13;;;;;;;11.75;100.00;63209.28;4960348;29;20557;-76
2022/10/08 06:29:45;;;;;;;11.70;8.35;;;;;;;11.84;100.00;63219.09;4969423;29;20207;-76
2022/10/08 06:32:12;;;;;;;11.30;8.20;;;;;;;11.69;100.00;63205.59;4967406;28;20279;-76
2022/10/08 06:34:40;;;;;;;10.75;8.65;;;;;;;11.87;100.00;63222.22;4969739;29;20236;-77
2022/10/08 06:37:08;;;;;;;10.30;8.13;;;;;;;11.89;100.00;63226.84;4967265;28;20216;-77
2022/10/08 06:39:36;;;;;;;10.48;8.50;;;;;;;11.90;100.00;63224.81;4966993;29;20486;-75
2022/10/08 06:42:03;;;;;;;12.18;7.85;;;;;;;12.03;100.00;63243.41;4971491;28;20232;-77
2022/10/08 06:44:29;;;;;;;11.90;7.97;;;;;;;12.17;100.00;63248.22;4966821;29;21116;-76
2022/10/08 06:46:56;;;;;;;10.93;8.60;;;;;;;12.23;100.00;63259.00;4962623;29;20200;-77
2022/10/08 06:49:25;;;;;;;9.10;8.13;;;;;;;12.39;100.00;63276.13;4965291;29;20201;-76
2022/10/08 06:51:52;;;;;;;10.75;7.45;;;;;;;12.45;100.00;63282.34;4968204;28;20236;-76
2022/10/08 06:54:19;;;;;;;14.93;7.88;;;;;;;12.49;100.00;63286.47;4966545;29;20510;-76
2022/10/08 06:56:47;;;;;;;9.05;8.15;;;;;;;12.48;100.00;63284.94;4967417;28;20879;-76
2022/10/08 06:59:14;;;;;;;15.20;8.15;;;;;;;12.47;100.00;63284.41;4967393;28;20216;-76
2022/10/08 07:01:41;;;;;;;13.55;8.25;;;;;;;12.52;100.00;63289.06;4964895;29;20542;-78
2022/10/08 07:04:10;;;;;;;14.50;8.20;;;;;;;12.65;100.00;63303.06;4965961;29;20196;-76
2022/10/08 07:06:37;;;;;;;9.38;7.05;;;;;;;12.69;100.00;63307.22;4967551;29;20244;-76
2022/10/08 07:09:05;;;;;;;11.65;8.18;;;;;;;12.77;100.00;63318.06;4969754;29;20211;-77
2022/10/08 07:11:33;;;;;;;7.95;7.22;;;;;;;12.90;100.00;63333.06;4967956;28;20501;-76
2022/10/08 07:14:01;;;;;;;12.00;7.18;;;;;;;13.03;99.38;63341.47;4967421;28;20229;-76
2022/10/08 07:16:29;;;;;;;11.65;6.95;;;;;;;13.01;98.56;63341.94;4968067;29;20310;-76
2022/10/08 07:18:57;;;;;;;9.05;7.20;;;;;;;13.06;99.41;63347.13;4967092;28;20379;-76
2022/10/08 07:21:24;;;;;;;10.80;7.28;;;;;;;13.15;100.00;63353.91;4966382;29;20256;-77
2022/10/08 07:23:52;;;;;;;8.85;7.95;;;;;;;13.28;98.16;63367.94;4974070;28;20228;-78
2022/10/08 07:26:22;;;;;;;10.48;7.72;;;;;;;13.45;96.73;63393.22;4976724;28;20229;-77
2022/10/08 07:28:51;;;;;;;11.32;7.60;;;;;;;13.57;96.20;63398.00;4973290;28;20213;-77
2022/10/08 07:31:22;;;;;;;9.60;7.47;;;;;;;13.56;95.30;63399.53;4972853;29;20220;-76
2022/10/08 07:33:50;;;;;;;15.07;8.63;;;;;;;13.65;94.34;63410.91;4971763;29;20287;-76
2022/10/08 07:36:18;;;;;;;11.05;7.28;;;;;;;13.74;93.92;63418.22;4969494;29;20197;-76
2022/10/08 07:38:46;;;;;;;13.32;7.72;;;;;;;13.79;94.29;63423.41;4964602;28;20220;-76
2022/10/08 07:41:14;;;;;;;14.48;8.77;;;;;;;13.94;94.59;63435.91;4966607;29;20307;-75
2022/10/08 07:43:41;;;;;;;13.57;8.40;;;;;;;14.17;92.45;63464.38;4964631;28;20525;-76
2022/10/08 07:46:10;;;;;;;11.50;8.80;;;;;;;14.28;92.09;63471.22;4962467;29;20398;-76
2022/10/08 07:48:39;;;;;;;14.02;8.82;;;;;;;14.20;91.53;63464.94;4963624;28;20231;-75
2022/10/08 07:51:10;;;;;;;11.20;8.40;;;;;;;14.30;91.75;63472.78;4965050;29;20249;-78
2022/10/08 07:53:38;;;;;;;12.65;9.60;;;;;;;14.42;90.85;63485.22;4966109;28;20228;-77
2022/10/08 07:56:06;;;;;;;12.20;8.85;;;;;;;14.37;90.88;63482.59;4967545;29;20272;-78
2022/10/08 07:58:33;;;;;;;13.77;7.63;;;;;;;14.41;91.28;63484.72;4971420;29;20225;-77
2022/10/08 08:01:01;;;;;;;9.85;8.85;;;;;;;14.54;89.85;63500.78;4970212;29;20262;-75
2022/10/08 08:03:29;;;;;;;7.65;6.47;;;;;;;14.49;90.02;63493.03;4967261;29;20303;-73
2022/10/08 08:06:03;;;;;;;6.85;5.95;;;;;;;14.62;88.67;63506.53;4965993;29;20228;-76
2022/10/08 08:08:30;;;;;;;8.05;5.65;;;;;;;14.84;87.20;63529.38;4958387;29;20467;-75
2022/10/08 08:10:58;;;;;;;12.20;6.50;;;;;;;14.96;86.66;63546.97;4965272;29;20220;-75
2022/10/08 08:13:24;;;;;;;9.88;6.00;;;;;;;15.17;86.27;63567.75;4968961;28;20227;-77
2022/10/08 08:15:57;;;;;;;7.68;5.13;;;;;;;15.41;84.97;63582.47;4965715;29;20211;-76
2022/10/08 08:18:23;;;;;;;6.22;4.65;;;;;;;15.51;81.33;63595.41;4967676;29;20244;-74
2022/10/08 08:20:57;;;;;;;10.82;5.50;;;;;;;15.36;81.05;63579.81;4967741;29;20416;-75
2022/10/08 08:23:28;;;;;;;7.63;5.10;;;;;;;15.32;82.68;63581.31;4967022;28;20220;-77
2022/10/08 08:25:55;;;;;;;7.93;5.47;;;;;;;15.55;81.03;63602.16;4956679;29;20548;-75
2022/10/08 08:28:23;;;;;;;5.60;5.10;;;;;;;15.61;79.05;63610.94;4962808;28;20291;-75
2022/10/08 08:30:50;;;;;;;6.50;4.97;;;;;;;15.58;77.82;63605.75;4970766;29;20204;-74
2022/10/08 08:33:17;;;;;;;5.50;5.00;;;;;;;15.65;78.98;63612.53;4967959;28;20677;-78
2022/10/08 08:35:52;;;;;;;6.20;5.07;;;;;;;15.76;76.03;63627.06;4967222;29;20218;-78
2022/10/08 08:38:18;;;;;;;6.32;5.45;;;;;;;15.95;75.05;63644.25;4971878;29;20219;-77
2022/10/08 08:40:47;;;;;;;5.13;4.60;;;;;;;16.13;76.29;63667.59;4970366;29;20203;-76
2022/10/08 08:43:14;;;;;;;5.78;5.22;;;;;;;16.34;74.63;63681.19;4958878;28;20280;-77
2022/10/08 08:45:43;;;;;;;9.18;5.30;;;;;;;16.54;72.64;63707.16;4964413;29;20214;-77
2022/10/08 08:48:17;;;;;;;8.18;4.70;;;;;;;16.51;71.08;63702.00;4974918;28;20233;-78
2022/10/08 08:50:47;;;;;;;6.90;4.20;;;;;;;16.56;68.39;63704.09;4964843;29;20203;-77
2022/10/08 08:53:14;;;;;;;8.02;4.47;;;;;;;16.78;69.65;63732.13;4955100;29;20235;-78
2022/10/08 08:55:44;;;;;;;10.15;4.22;;;;;;;17.08;65.28;63766.44;4968618;29;20232;-77
2022/10/08 08:58:25;;;;;;;5.28;4.78;;;;;;;17.29;62.48;63785.72;4969095;29;20231;-77
2022/10/08 09:00:56;;;;;;;4.28;4.07;;;;;;;17.34;61.66;63793.50;4968168;29;20196;-77
2022/10/08 09:03:28;;;;;;;4.78;4.47;;;;;;;17.40;61.37;63794.09;4962922;28;20241;-78
2022/10/08 09:05:58;;;;;;;4.65;4.25;;;;;;;17.60;60.14;63817.50;4966640;29;20243;-76
2022/10/08 09:08:31;;;;;;;5.13;4.07;;;;;;;17.68;57.63;63822.75;4969186;28;20442;-75
2022/10/08 09:11:00;;;;;;;4.10;3.80;;;;;;;17.53;55.63;63807.13;4967129;29;20271;-76
2022/10/08 09:13:34;;;;;;;4.63;4.22;;;;;;;17.18;56.93;63771.72;4958116;29;20228;-77
2022/10/08 09:16:01;;;;;;;3.97;3.50;;;;;;;17.30;56.37;63784.22;4963663;29;20244;-77
2022/10/08 09:18:29;;;;;;;3.90;3.60;;;;;;;17.46;56.42;63805.50;4966640;28;20243;-76
2022/10/08 09:20:56;;;;;;;4.85;4.32;;;;;;;17.28;57.21;63786.75;4968115;29;20215;-76
2022/10/08 09:23:25;;;;;;;4.22;3.88;;;;;;;17.39;57.12;63797.69;4970061;28;20253;-76
2022/10/08 09:25:57;;;;;;;4.30;3.97;;;;;;;17.35;57.72;63791.47;4969709;29;20196;-76
2022/10/08 09:28:44;;;;;;;4.13;3.70;;;;;;;17.25;56.58;63779.00;4959554;29;20246;-77
2022/10/08 09:31:18;;;;;;;5.82;3.78;;;;;;;17.44;55.55;63800.84;4969277;29;20509;-77
2022/10/08 09:33:45;;;;;;;3.88;3.50;;;;;;;17.07;53.16;63767.97;4967664;28;20226;-75
2022/10/08 09:36:12;;;;;;;4.35;3.60;;;;;;;17.03;55.13;63755.59;4958677;29;20205;-77
2022/10/08 09:38:40;;;;;;;3.50;3.30;;;;;;;16.92;54.74;63749.28;4967982;28;20231;-75
2022/10/08 09:41:17;;;;;;;3.80;3.50;;;;;;;16.76;55.39;63730.56;4961941;29;20205;-76
2022/10/08 09:44:04;;;;;;;4.30;4.00;;;;;;;16.98;56.31;63752.94;4966010;28;20243;-76
2022/10/08 09:46:33;;;;;;;3.60;3.40;;;;;;;17.25;56.59;63781.06;4965951;29;20529;-77
2022/10/08 09:49:21;;;;;;;5.18;4.10;;;;;;;17.40;57.05;63794.09;4971196;29;20387;-77
2022/10/08 09:51:50;;;;;;;6.30;4.40;;;;;;;17.57;56.91;63809.22;4971692;28;20294;-76
2022/10/08 09:54:22;;;;;;;5.55;4.03;;;;;;;17.81;55.86;63836.78;4967520;29;20216;-76
2022/10/08 09:56:52;;;;;;;4.10;3.90;;;;;;;18.03;53.93;63859.19;4966377;29;20211;-76
2022/10/08 09:59:23;;;;;;;6.68;4.63;;;;;;;18.11;54.19;63870.63;4968591;29;20200;-76
2022/10/08 10:01:51;;;;;;;5.05;3.83;;;;;;;18.05;52.93;63861.78;4968572;28;20259;-76
2022/10/08 10:04:25;;;;;;;5.70;3.40;;;;;;;17.99;52.90;63855.56;4967486;29;20256;-76
2022/10/08 10:06:54;;;;;;;4.35;3.95;;;;;;;18.11;52.64;63872.69;4969808;29;20255;-76
2022/10/08 10:09:29;;;;;;;3.80;3.50;;;;;;;18.06;52.66;63859.75;4967110;29;20211;-76
2022/10/08 10:12:02;;;;;;;6.78;3.75;;;;;;;18.27;51.96;63887.28;4967768;28;20247;-76
2022/10/08 10:14:41;;;;;;;5.60;3.22;;;;;;;18.29;51.46;63891.94;4965908;29;20415;-76
2022/10/08 10:17:16;;;;;;;3.67;3.47;;;;;;;18.27;53.16;63884.19;4965704;28;20389;-77
2022/10/08 10:19:50;;;;;;;4.68;3.45;;;;;;;18.51;52.54;63911.28;4969407;29;20246;-76
2022/10/08 10:22:22;;;;;;;5.78;3.08;;;;;;;18.78;50.55;63939.41;4967166;29;20235;-76
2022/10/08 10:24:56;;;;;;;6.88;3.83;;;;;;;18.97;50.19;63959.75;4965999;29;20200;-76
2022/10/08 10:27:31;;;;;;;4.45;3.55;;;;;;;19.11;49.18;63979.50;4963683;28;20223;-77
2022/10/08 10:30:06;;;;;;;3.80;3.50;;;;;;;18.97;49.24;63959.75;4967005;29;20204;-76
2022/10/08 10:32:38;;;;;;;4.18;3.72;;;;;;;19.05;49.94;63965.00;4961253;28;20278;-76
2022/10/08 10:35:13;;;;;;;5.50;3.50;;;;;;;19.18;49.79;63984.22;4963454;29;20254;-76
2022/10/08 10:37:46;;;;;;;4.45;4.05;;;;;;;19.36;50.56;64000.41;4967040;28;20422;-75
2022/10/08 10:40:31;;;;;;;5.88;3.50;;;;;;;19.29;47.70;63995.19;4963081;29;20197;-77
2022/10/08 10:43:14;;;;;;;6.65;3.47;;;;;;;19.19;48.18;63984.75;4963472;28;20223;-76
2022/10/08 10:45:46;;;;;;;3.90;3.60;;;;;;;19.26;47.15;63989.97;4964731;28;20240;-76
2022/10/08 10:48:14;;;;;;;3.92;3.10;;;;;;;19.15;47.59;63978.00;4966436;28;20236;-76
2022/10/08 10:50:59;;;;;;;3.38;3.17;;;;;;;18.98;47.00;63962.84;4965472;29;20200;-75
2022/10/08 10:53:40;;;;;;;3.25;3.05;;;;;;;18.95;47.36;63960.25;4965865;28;20226;-75
2022/10/08 10:56:14;;;;;;;7.47;3.20;;;;;;;18.91;47.77;63958.13;4964972;29;20256;-77
2022/10/08 10:59:01;;;;;;;3.83;3.53;;;;;;;18.67;48.02;63923.31;4964971;28;20224;-77
2022/10/08 11:01:39;;;;;;;3.97;3.47;;;;;;;18.66;48.37;63924.84;4966096;29;20203;-78
2022/10/08 11:04:13;;;;;;;3.22;2.90;;;;;;;18.92;49.56;63957.13;4965016;29;20200;-76
2022/10/08 11:06:59;;;;;;;3.00;2.90;;;;;;;19.01;48.65;63960.81;4966177;28;20196;-76
2022/10/08 11:09:38;;;;;;;9.85;3.55;;;;;;;19.14;48.96;63972.31;4965635;29;20228;-76
2022/10/08 11:12:17;;;;;;;5.80;3.25;;;;;;;19.26;46.92;63987.41;4961475;28;20215;-77
2022/10/08 11:14:57;;;;;;;3.78;3.50;;;;;;;19.02;48.27;63962.38;4964783;29;20242;-76
2022/10/08 11:17:38;;;;;;;8.10;4.32;;;;;;;18.77;47.84;63940.97;4967295;28;20263;-77
2022/10/08 11:20:38;;;;;;;5.75;3.88;;;;;;;18.74;48.58;63933.19;4958662;29;20204;-76
2022/10/08 11:23:14;;;;;;;3.85;3.65;;;;;;;19.06;48.65;63968.59;4948510;29;20248;-77
2022/10/08 11:25:47;;;;;;;3.90;3.70;;;;;;;19.27;49.19;63993.09;4966605;29;20546;-77
2022/10/08 11:28:23;;;;;;;4.95;3.22;;;;;;;19.41;48.17;64007.72;4966116;29;20227;-77
2022/10/08 11:30:59;;;;;;;3.70;3.40;;;;;;;19.53;46.53;64020.22;4949741;29;20208;-75
2022/10/08 11:33:28;;;;;;;5.32;3.75;;;;;;;19.52;46.59;64019.69;4948771;29;20286;-77
2022/10/08 11:36:13;;;;;;;4.00;3.60;;;;;;;19.61;45.79;64022.88;4964518;29;20204;-76
2022/10/08 11:38:45;;;;;;;4.75;3.53;;;;;;;19.60;47.24;64027.00;4957059;28;20247;-77
2022/10/08 11:41:20;;;;;;;3.92;3.63;;;;;;;19.47;46.85;64009.31;4964201;29;20359;-77
2022/10/08 11:43:53;;;;;;;3.45;3.20;;;;;;;19.47;46.54;64014.47;4963739;28;20307;-76
2022/10/08 11:46:27;;;;;;;8.55;3.92;;;;;;;19.48;46.86;64015.00;4966544;29;20193;-76
2022/10/08 11:48:57;;;;;;;4.18;3.65;;;;;;;19.59;47.15;64026.47;4961379;28;20290;-78